createdAt,value
2018-06-19T00:01:52.329Z,5.20
2018-06-19T00:04:21.597Z,5.50
2018-06-19T00:06:50.054Z,5.20
2018-06-19T00:09:18.664Z,5.27
2018-06-19T00:11:47.303Z,5.20
2018-06-19T00:14:15.759Z,5.53
2018-06-19T00:16:44.624Z,5.40
2018-06-19T00:19:13.703Z,5.13
2018-06-19T00:21:59.081Z,5.63
2018-06-19T00:24:27.738Z,5.77
2018-06-19T00:26:56.544Z,5.77
2018-06-19T00:29:25.232Z,5.07
2018-06-19T00:31:54.092Z,5.00
2018-06-19T00:34:22.804Z,5.67
2018-06-19T00:36:51.837Z,5.50
2018-06-19T00:39:21.032Z,5.40
2018-06-19T00:41:49.604Z,5.33
2018-06-19T00:44:18.112Z,5.90
2018-06-19T00:46:48.323Z,5.40
2018-06-19T00:49:16.768Z,6.37
2018-06-19T00:51:45.724Z,5.57
2018-06-19T00:54:15.055Z,6.10
2018-06-19T00:56:49.184Z,6.10
2018-06-19T00:59:18.292Z,5.97
2018-06-19T01:01:47.223Z,5.60
2018-06-19T01:04:16.014Z,5.73
2018-06-19T01:06:45.019Z,6.30
2018-06-19T01:09:14.371Z,5.93
2018-06-19T01:11:43.609Z,6.43
2018-06-19T01:14:12.245Z,6.20
2018-06-19T01:16:41.045Z,6.47
2018-06-19T01:19:10.045Z,6.33
2018-06-19T01:21:38.598Z,6.10
2018-06-19T01:24:07.545Z,6.37
2018-06-19T01:26:36.235Z,5.80
2018-06-19T01:29:04.920Z,5.90
2018-06-19T01:31:33.952Z,5.83
2018-06-19T01:35:05.329Z,6.57
2018-06-19T01:37:33.680Z,6.07
2018-06-19T01:40:02.414Z,6.00
2018-06-19T01:42:30.997Z,5.83
2018-06-19T01:44:59.379Z,6.17
2018-06-19T01:47:27.840Z,6.00
2018-06-19T01:49:56.752Z,5.60
2018-06-19T01:52:25.137Z,6.00
2018-06-19T01:54:53.487Z,5.70
2018-06-19T01:57:21.888Z,6.07
2018-06-19T01:59:50.556Z,5.87
2018-06-19T02:02:19.000Z,5.93
2018-06-19T02:04:47.332Z,5.77
2018-06-19T02:07:15.723Z,5.80
2018-06-19T02:09:44.092Z,6.27
2018-06-19T02:12:12.760Z,5.30
2018-06-19T02:14:41.225Z,5.87
2018-06-19T02:17:09.553Z,5.97
2018-06-19T02:19:37.934Z,5.77
2018-06-19T02:22:06.280Z,5.73
2018-06-19T02:24:34.652Z,4.93
2018-06-19T02:27:03.109Z,6.10
2018-06-19T02:29:31.576Z,5.97
2018-06-19T02:32:00.102Z,5.70
2018-06-19T02:34:28.825Z,5.50
2018-06-19T02:36:57.484Z,6.07
2018-06-19T02:39:26.165Z,5.37
2018-06-19T02:41:54.550Z,5.60
2018-06-19T02:44:22.973Z,5.77
2018-06-19T02:46:51.746Z,5.80
2018-06-19T02:49:20.601Z,6.00
2018-06-19T02:51:49.616Z,6.00
2018-06-19T02:54:18.285Z,5.10
2018-06-19T02:56:46.968Z,5.43
2018-06-19T02:59:15.373Z,5.73
2018-06-19T03:01:44.060Z,5.47
2018-06-19T03:04:12.377Z,5.70
2018-06-19T03:06:40.919Z,5.70
2018-06-19T03:09:10.709Z,5.70
2018-06-19T03:11:39.420Z,5.93
2018-06-19T03:14:07.768Z,6.00
2018-06-19T03:16:36.772Z,6.00
2018-06-19T03:19:05.194Z,5.70
2018-06-19T03:21:33.960Z,5.80
2018-06-19T03:24:02.541Z,5.40
2018-06-19T03:26:30.928Z,5.50
2018-06-19T03:28:59.590Z,5.33
2018-06-19T03:31:27.997Z,5.00
2018-06-19T03:33:56.404Z,5.17
2018-06-19T03:36:25.068Z,5.93
2018-06-19T03:38:53.484Z,5.60
2018-06-19T03:41:22.408Z,5.67
2018-06-19T03:43:50.812Z,4.93
2018-06-19T03:46:19.572Z,5.33
2018-06-19T03:48:47.924Z,5.67
2018-06-19T03:51:16.420Z,5.50
2018-06-19T03:53:44.892Z,5.77
2018-06-19T03:56:13.204Z,5.80
2018-06-19T03:58:42.041Z,5.53
2018-06-19T04:01:10.435Z,5.43
2018-06-19T04:03:39.055Z,5.80
2018-06-19T04:06:07.401Z,5.20
2018-06-19T04:08:35.888Z,5.40
2018-06-19T04:11:04.232Z,5.37
2018-06-19T04:13:32.592Z,5.43
2018-06-19T04:16:01.263Z,5.70
2018-06-19T04:18:29.631Z,5.97
2018-06-19T04:20:57.988Z,5.87
2018-06-19T04:23:26.726Z,5.77
2018-06-19T04:25:55.389Z,5.60
2018-06-19T04:28:23.773Z,5.40
2018-06-19T04:30:52.367Z,4.83
2018-06-19T04:33:20.885Z,5.73
2018-06-19T04:35:49.528Z,5.40
2018-06-19T04:38:17.896Z,5.13
2018-06-19T04:40:46.876Z,5.27
2018-06-19T04:43:15.221Z,5.37
2018-06-19T04:45:43.780Z,4.90
2018-06-19T04:48:12.336Z,5.40
2018-06-19T04:50:40.689Z,5.00
2018-06-19T04:53:09.155Z,4.93
2018-06-19T04:55:38.089Z,4.70
2018-06-19T04:58:06.760Z,4.93
2018-06-19T05:00:35.468Z,4.87
2018-06-19T05:03:03.852Z,4.70
2018-06-19T05:05:32.553Z,4.30
2018-06-19T05:08:01.341Z,4.27
2018-06-19T05:10:30.216Z,4.73
2018-06-19T05:12:58.905Z,4.20
2018-06-19T05:15:27.707Z,4.30
2018-06-19T05:17:56.608Z,4.20
2018-06-19T05:20:25.341Z,4.30
2018-06-19T05:22:54.000Z,4.17
2018-06-19T05:25:22.737Z,4.70
2018-06-19T05:27:51.755Z,4.13
2018-06-19T05:30:20.350Z,4.40
2018-06-19T05:32:49.308Z,4.20
2018-06-19T05:35:17.636Z,4.50
2018-06-19T05:37:45.949Z,4.43
2018-06-19T05:40:14.589Z,3.83
2018-06-19T05:42:43.137Z,4.50
2018-06-19T05:45:11.848Z,4.00
2018-06-19T05:47:40.329Z,4.10
2018-06-19T05:50:08.912Z,4.07
2018-06-19T05:52:37.389Z,4.33
2018-06-19T05:55:05.696Z,3.90
2018-06-19T05:57:34.033Z,4.33
2018-06-19T06:00:02.810Z,3.93
2018-06-19T06:02:31.112Z,3.93
2018-06-19T06:05:00.165Z,3.50
2018-06-19T06:07:28.593Z,3.70
2018-06-19T06:09:56.893Z,3.80
2018-06-19T06:12:25.252Z,3.63
2018-06-19T06:14:53.934Z,3.87
2018-06-19T06:17:22.623Z,4.20
2018-06-19T06:19:51.416Z,3.60
2018-06-19T06:22:19.752Z,3.50
2018-06-19T06:24:48.052Z,3.37
2018-06-19T06:27:16.561Z,3.40
2018-06-19T06:29:45.241Z,3.77
2018-06-19T06:32:14.109Z,3.77
2018-06-19T06:34:42.543Z,3.77
2018-06-19T06:37:10.869Z,3.60
2018-06-19T06:39:39.641Z,3.30
2018-06-19T06:42:07.957Z,3.83
2018-06-19T06:44:36.451Z,3.40
2018-06-19T06:47:04.754Z,3.00
2018-06-19T06:49:33.364Z,3.50
2018-06-19T06:52:01.807Z,3.43
2018-06-19T06:54:30.570Z,3.30
2018-06-19T06:57:00.689Z,3.10
2018-06-19T06:59:29.691Z,3.20
2018-06-19T07:01:58.368Z,3.10
2018-06-19T07:04:26.788Z,3.60
2018-06-19T07:06:55.539Z,3.20
2018-06-19T07:09:24.156Z,3.13
2018-06-19T07:11:52.505Z,3.30
2018-06-19T07:14:21.505Z,3.53
2018-06-19T07:16:50.189Z,2.83
2018-06-19T07:19:19.318Z,3.33
2018-06-19T07:21:47.841Z,3.20
2018-06-19T07:24:16.164Z,3.47
2018-06-19T07:26:44.961Z,3.30
2018-06-19T07:29:13.928Z,3.10
2018-06-19T07:31:42.365Z,3.43
2018-06-19T07:34:10.681Z,3.13
2018-06-19T07:36:39.203Z,3.00
2018-06-19T07:39:08.387Z,3.13
2018-06-19T07:41:36.832Z,2.97
2018-06-19T07:44:06.033Z,3.13
2018-06-19T07:46:34.556Z,2.93
2018-06-19T07:49:03.228Z,2.90
2018-06-19T07:51:31.796Z,3.20
2018-06-19T07:54:00.291Z,3.17
2018-06-19T07:56:28.842Z,3.40
2018-06-19T07:58:57.565Z,3.00
2018-06-19T08:01:25.921Z,2.83
2018-06-19T08:03:54.308Z,3.03
2018-06-19T08:06:23.098Z,2.77
2018-06-19T08:08:51.684Z,2.70
2018-06-19T08:11:20.040Z,2.70
2018-06-19T08:13:48.490Z,2.87
2018-06-19T08:16:17.145Z,3.00
2018-06-19T08:18:45.475Z,2.60
2018-06-19T08:21:13.996Z,2.57
2018-06-19T08:23:42.493Z,2.50
2018-06-19T08:26:11.575Z,2.57
2018-06-19T08:28:40.564Z,2.50
2018-06-19T08:31:09.116Z,2.60
2018-06-19T08:33:37.942Z,2.70
2018-06-19T08:36:07.616Z,2.33
2018-06-19T08:38:35.924Z,2.77
2018-06-19T08:41:04.209Z,2.43
2018-06-19T08:43:33.191Z,2.37
2018-06-19T08:46:01.679Z,2.43
2018-06-19T08:48:30.341Z,2.30
2018-06-19T08:50:58.769Z,2.60
2018-06-19T08:53:27.431Z,2.30
2018-06-19T08:55:56.120Z,2.10
2018-06-19T08:58:24.800Z,2.50
2018-06-19T09:00:53.097Z,2.27
2018-06-19T09:03:21.541Z,2.20
2018-06-19T09:05:50.872Z,2.27
2018-06-19T09:08:19.629Z,2.37
2018-06-19T09:10:48.334Z,2.40
2018-06-19T09:13:16.663Z,2.57
2018-06-19T09:15:45.273Z,2.50
2018-06-19T09:18:14.296Z,2.50
2018-06-19T09:20:42.770Z,2.10
2018-06-19T09:23:11.365Z,2.37
2018-06-19T09:25:39.757Z,2.23
2018-06-19T09:28:08.431Z,2.30
2018-06-19T09:30:37.181Z,2.40
2018-06-19T09:33:06.089Z,2.27
2018-06-19T09:35:34.388Z,2.20
2018-06-19T09:38:02.833Z,2.33
2018-06-19T09:40:31.192Z,2.03
2018-06-19T09:43:00.077Z,2.20
2018-06-19T09:45:28.545Z,2.20
2018-06-19T09:47:57.304Z,2.03
2018-06-19T09:50:25.972Z,1.87
2018-06-19T09:52:54.436Z,1.90
2018-06-19T09:55:22.891Z,2.60
2018-06-19T09:57:51.537Z,2.50
2018-06-19T10:00:25.225Z,2.10
2018-06-19T10:02:53.733Z,2.60
2018-06-19T10:05:22.119Z,2.07
2018-06-19T10:07:50.510Z,2.20
2018-06-19T10:10:19.232Z,2.30
2018-06-19T10:12:47.882Z,2.40
2018-06-19T10:15:16.216Z,2.40
2018-06-19T10:17:45.029Z,2.00
2018-06-19T10:20:13.546Z,2.30
2018-06-19T10:22:41.992Z,2.20
2018-06-19T10:25:10.472Z,2.07
2018-06-19T10:27:38.778Z,1.90
2018-06-19T10:30:07.104Z,2.30
2018-06-19T10:32:35.841Z,2.10
2018-06-19T10:35:04.510Z,2.40
2018-06-19T10:37:32.881Z,2.33
2018-06-19T10:40:01.872Z,2.00
2018-06-19T10:42:30.565Z,2.27
2018-06-19T10:44:58.952Z,2.40
2018-06-19T10:47:27.422Z,2.47
2018-06-19T10:49:56.596Z,2.10
2018-06-19T10:52:25.315Z,2.03
2018-06-19T10:54:53.697Z,1.87
2018-06-19T10:57:22.168Z,2.10
2018-06-19T10:59:50.761Z,1.97
2018-06-19T11:02:19.439Z,2.20
2018-06-19T11:04:47.824Z,2.67
2018-06-19T11:07:16.288Z,2.20
2018-06-19T11:09:45.081Z,2.10
2018-06-19T11:12:13.591Z,2.60
2018-06-19T11:14:41.933Z,2.40
2018-06-19T11:17:10.651Z,2.23
2018-06-19T11:19:39.029Z,2.17
2018-06-19T11:22:07.506Z,2.60
2018-06-19T11:24:35.844Z,2.20
2018-06-19T11:27:04.470Z,2.50
2018-06-19T11:29:32.805Z,2.33
2018-06-19T11:32:01.227Z,2.57
2018-06-19T11:34:30.808Z,2.30
2018-06-19T11:36:59.833Z,2.13
2018-06-19T11:39:28.564Z,2.13
2018-06-19T11:41:57.506Z,2.20
2018-06-19T11:44:26.524Z,2.40
2018-06-19T11:46:55.288Z,2.60
2018-06-19T11:49:23.768Z,2.10
2018-06-19T11:51:52.212Z,2.40
2018-06-19T11:54:20.949Z,2.30
2018-06-19T11:56:49.366Z,2.40
2018-06-19T11:59:18.102Z,2.40
2018-06-19T12:01:46.728Z,2.37
2018-06-19T12:04:15.804Z,2.40
2018-06-19T12:06:44.353Z,2.20
2018-06-19T12:09:12.868Z,2.00
2018-06-19T12:11:41.751Z,2.23
2018-06-19T12:14:11.392Z,2.20
2018-06-19T12:16:40.053Z,2.17
2018-06-19T12:19:09.113Z,2.30
2018-06-19T12:21:37.484Z,2.17
2018-06-19T12:24:06.113Z,2.40
2018-06-19T12:26:34.455Z,2.37
2018-06-19T12:29:02.909Z,2.43
2018-06-19T12:31:31.360Z,2.30
2018-06-19T12:33:59.733Z,2.73
2018-06-19T12:36:28.061Z,2.40
2018-06-19T12:38:56.493Z,2.10
2018-06-19T12:41:29.359Z,2.37
2018-06-19T12:43:57.710Z,1.87
2018-06-19T12:46:26.162Z,1.87
2018-06-19T12:48:54.724Z,2.10
2018-06-19T12:51:34.581Z,2.00
2018-06-19T12:54:08.492Z,1.97
2018-06-19T12:56:36.846Z,1.77
2018-06-19T12:59:05.172Z,1.77
2018-06-19T13:01:33.641Z,1.80
2018-06-19T13:04:07.540Z,1.80
2018-06-19T13:06:36.492Z,1.73
2018-06-19T13:09:07.067Z,2.07
2018-06-19T13:11:35.699Z,2.03
2018-06-19T13:14:09.641Z,2.00
2018-06-19T13:16:43.521Z,1.87
2018-06-19T13:19:17.460Z,1.73
2018-06-19T13:21:45.776Z,2.00
2018-06-19T13:24:14.312Z,1.80
2018-06-19T13:26:42.907Z,2.00
2018-06-19T13:29:42.896Z,2.23
2018-06-19T13:32:11.611Z,2.23
2018-06-19T13:34:40.131Z,2.07
2018-06-19T13:37:08.697Z,2.40
2018-06-19T13:39:38.401Z,2.30
2018-06-19T13:42:12.521Z,2.07
2018-06-19T13:44:46.115Z,2.20
2018-06-19T13:47:14.605Z,2.33
2018-06-19T13:49:43.165Z,2.30
2018-06-19T13:52:11.468Z,2.30
2018-06-19T13:54:40.331Z,2.43
2018-06-19T13:57:14.144Z,2.20
2018-06-19T13:59:42.808Z,2.30
2018-06-19T14:02:11.133Z,2.33
2018-06-19T14:04:39.583Z,2.70
2018-06-19T14:07:08.340Z,3.73
2018-06-19T14:09:42.175Z,3.40
2018-06-19T14:12:21.360Z,4.10
2018-06-19T14:14:50.052Z,3.50
2018-06-19T14:17:18.973Z,3.80
2018-06-19T14:19:47.358Z,3.80
2018-06-19T14:22:15.736Z,3.80
2018-06-19T14:24:44.136Z,3.77
2018-06-19T14:27:12.799Z,3.87
2018-06-19T14:29:41.303Z,3.60
2018-06-19T14:32:09.678Z,3.77
2018-06-19T14:34:38.269Z,3.10
2018-06-19T14:37:06.789Z,3.73
2018-06-19T14:39:35.311Z,3.30
2018-06-19T14:42:03.924Z,3.57
2018-06-19T14:44:33.107Z,3.10
2018-06-19T14:47:01.436Z,3.37
2018-06-19T14:49:29.756Z,3.00
2018-06-19T14:51:58.053Z,3.20
2018-06-19T14:54:26.572Z,3.13
2018-06-19T14:56:54.896Z,2.90
2018-06-19T14:59:23.372Z,3.20
2018-06-19T15:01:51.705Z,2.63
2018-06-19T15:04:20.057Z,2.80
2018-06-19T15:07:19.005Z,3.17
2018-06-19T15:09:47.504Z,3.07
2018-06-19T15:12:15.801Z,3.10
2018-06-19T15:14:44.285Z,3.10
2018-06-19T15:17:12.641Z,2.90
2018-06-19T15:19:41.226Z,3.13
2018-06-19T15:22:09.526Z,2.93
2018-06-19T15:24:38.088Z,3.20
2018-06-19T15:27:06.592Z,3.00
2018-06-19T15:29:34.936Z,3.10
2018-06-19T15:32:03.284Z,2.97
2018-06-19T15:34:31.607Z,2.90
2018-06-19T15:36:59.902Z,2.80
2018-06-19T15:39:28.220Z,3.03
2018-06-19T15:41:56.556Z,3.20
2018-06-19T15:44:24.897Z,2.90
2018-06-19T15:46:53.257Z,2.90
2018-06-19T15:49:21.668Z,2.90
2018-06-19T15:51:50.007Z,3.13
2018-06-19T15:54:18.329Z,2.93
2018-06-19T15:56:46.713Z,3.20
2018-06-19T15:59:15.219Z,3.33
2018-06-19T16:01:43.814Z,2.93
2018-06-19T16:04:12.185Z,3.50
2018-06-19T16:06:40.493Z,2.90
2018-06-19T16:09:09.796Z,3.10
2018-06-19T16:11:38.185Z,3.53
2018-06-19T16:14:06.803Z,3.30
2018-06-19T16:16:35.145Z,3.47
2018-06-19T16:19:03.949Z,3.40
2018-06-19T16:21:32.742Z,3.53
2018-06-19T16:24:01.378Z,3.30
2018-06-19T16:26:30.057Z,3.10
2018-06-19T16:28:58.521Z,3.30
2018-06-19T16:31:26.835Z,3.53
2018-06-19T16:33:55.294Z,3.37
2018-06-19T16:36:23.678Z,3.57
2018-06-19T16:38:52.004Z,3.43
2018-06-19T16:41:21.028Z,3.30
2018-06-19T16:43:49.670Z,3.13
2018-06-19T16:46:18.119Z,3.93
2018-06-19T16:48:46.427Z,3.30
2018-06-19T16:51:14.745Z,3.60
2018-06-19T16:53:43.182Z,3.37
2018-06-19T16:56:11.545Z,3.37
2018-06-19T16:58:39.916Z,3.20
2018-06-19T17:01:08.264Z,3.37
2018-06-19T17:03:36.643Z,3.30
2018-06-19T17:06:05.150Z,3.10
2018-06-19T17:08:33.875Z,3.27
2018-06-19T17:11:02.428Z,3.40
2018-06-19T17:13:30.924Z,3.63
2018-06-19T17:15:59.492Z,3.20
2018-06-19T17:18:28.819Z,3.50
2018-06-19T17:20:57.253Z,3.80
2018-06-19T17:23:25.568Z,3.63
2018-06-19T17:25:54.324Z,3.50
2018-06-19T17:28:23.052Z,3.33
2018-06-19T17:30:51.388Z,3.40
2018-06-19T17:33:19.716Z,3.20
2018-06-19T17:35:48.511Z,3.20
2018-06-19T17:38:16.808Z,3.80
2018-06-19T17:40:45.188Z,3.60
2018-06-19T17:43:13.849Z,3.60
2018-06-19T17:45:42.365Z,3.87
2018-06-19T17:48:11.378Z,3.83
2018-06-19T17:50:39.949Z,4.33
2018-06-19T17:53:08.266Z,3.33
2018-06-19T17:55:36.631Z,3.70
2018-06-19T17:58:05.336Z,4.10
2018-06-19T18:00:33.828Z,4.20
2018-06-19T18:03:02.156Z,3.70
2018-06-19T18:05:30.464Z,3.70
2018-06-19T18:07:59.198Z,3.70
2018-06-19T18:10:27.536Z,4.00
2018-06-19T18:12:56.161Z,4.10
2018-06-19T18:15:24.652Z,4.10
2018-06-19T18:17:53.312Z,3.73
2018-06-19T18:20:22.040Z,3.90
2018-06-19T18:22:50.376Z,3.87
2018-06-19T18:25:18.745Z,3.90
2018-06-19T18:27:47.064Z,3.97
2018-06-19T18:30:15.793Z,3.67
2018-06-19T18:32:45.093Z,3.80
2018-06-19T18:35:13.421Z,4.13
2018-06-19T18:37:41.908Z,3.97
2018-06-19T18:40:10.879Z,3.97
2018-06-19T18:42:39.916Z,3.80
2018-06-19T18:45:08.230Z,3.73
2018-06-19T18:47:36.696Z,4.13
2018-06-19T18:50:05.075Z,3.80
2018-06-19T18:52:33.432Z,3.80
2018-06-19T18:55:01.949Z,3.83
2018-06-19T18:57:30.731Z,3.80
2018-06-19T18:59:59.449Z,4.13
2018-06-19T19:02:27.782Z,3.90
2018-06-19T19:04:56.528Z,3.90
2018-06-19T19:07:24.836Z,3.60
2018-06-19T19:09:58.684Z,4.00
2018-06-19T19:12:27.136Z,4.13
2018-06-19T19:15:01.188Z,3.70
2018-06-19T19:17:34.863Z,4.20
2018-06-19T19:20:03.399Z,4.00
2018-06-19T19:22:32.017Z,3.93
2018-06-19T19:25:00.394Z,4.13
2018-06-19T19:27:34.184Z,4.10
2018-06-19T19:30:02.579Z,3.57
2018-06-19T19:32:31.096Z,3.90
2018-06-19T19:34:59.462Z,3.87
2018-06-19T19:37:33.229Z,4.00
2018-06-19T19:40:01.774Z,3.70
2018-06-19T19:42:30.085Z,3.80
2018-06-19T19:44:58.565Z,3.73
2018-06-19T19:47:32.327Z,3.90
2018-06-19T19:50:01.400Z,3.80
2018-06-19T19:52:29.808Z,4.00
2018-06-19T19:54:58.179Z,3.90
2018-06-19T19:57:31.908Z,4.07
2018-06-19T20:00:00.449Z,3.60
2018-06-19T20:02:28.884Z,4.20
2018-06-19T20:04:57.535Z,4.03
2018-06-19T20:07:26.244Z,4.10
2018-06-19T20:09:54.956Z,3.57
2018-06-19T20:12:23.776Z,4.10
2018-06-19T20:14:52.404Z,3.80
2018-06-19T20:17:20.705Z,4.00
2018-06-19T20:19:49.019Z,4.33
2018-06-19T20:22:17.740Z,4.37
2018-06-19T20:24:46.960Z,3.97
2018-06-19T20:27:15.273Z,3.97
2018-06-19T20:29:43.719Z,3.90
2018-06-19T20:32:12.488Z,4.43
2018-06-19T20:34:40.946Z,4.43
2018-06-19T20:37:09.506Z,4.07
2018-06-19T20:39:37.832Z,4.73
2018-06-19T20:42:06.171Z,3.87
2018-06-19T20:44:34.646Z,4.23
2018-06-19T20:47:03.050Z,4.07
2018-06-19T20:49:31.660Z,4.20
2018-06-19T20:52:00.066Z,4.40
2018-06-19T20:54:28.462Z,4.60
2018-06-19T20:56:56.762Z,4.90
2018-06-19T20:59:25.258Z,4.60
2018-06-19T21:01:53.631Z,4.27
2018-06-19T21:04:22.300Z,4.47
2018-06-19T21:06:51.032Z,4.80
2018-06-19T21:09:19.496Z,4.97
2018-06-19T21:11:48.072Z,4.77
2018-06-19T21:14:16.424Z,4.40
2018-06-19T21:16:44.907Z,4.10
2018-06-19T21:19:13.232Z,4.17
2018-06-19T21:21:42.094Z,4.80
2018-06-19T21:24:10.625Z,4.97
2018-06-19T21:26:39.327Z,4.57
2018-06-19T21:29:07.681Z,4.87
2018-06-19T21:31:36.317Z,4.57
2018-06-19T21:34:04.780Z,4.80
2018-06-19T21:36:33.089Z,4.63
2018-06-19T21:39:01.574Z,4.70
2018-06-19T21:41:29.877Z,4.80
2018-06-19T21:43:58.215Z,4.37
2018-06-19T21:46:26.696Z,4.73
2018-06-19T21:48:55.276Z,4.50
2018-06-19T21:51:23.992Z,4.53
2018-06-19T21:53:52.352Z,4.80
2018-06-19T21:56:20.841Z,4.70
2018-06-19T21:58:49.415Z,5.00
2018-06-19T22:01:17.786Z,5.07
2018-06-19T22:03:46.500Z,4.70
2018-06-19T22:06:14.852Z,4.77
2018-06-19T22:08:48.819Z,4.87
2018-06-19T22:11:17.158Z,4.53
2018-06-19T22:13:45.970Z,4.83
2018-06-19T22:16:14.354Z,4.63
2018-06-19T22:18:42.904Z,4.63
2018-06-19T22:21:11.273Z,4.70
2018-06-19T22:23:39.656Z,5.17
2018-06-19T22:26:08.398Z,5.00
2018-06-19T22:28:37.360Z,5.03
2018-06-19T22:31:06.083Z,5.50
2018-06-19T22:33:34.426Z,5.37
2018-06-19T22:36:02.771Z,4.87
2018-06-19T22:38:31.509Z,5.00
2018-06-19T22:41:00.277Z,4.87
2018-06-19T22:43:29.310Z,5.13
2018-06-19T22:45:57.718Z,4.93
2018-06-19T22:48:26.277Z,5.27
2018-06-19T22:50:54.683Z,5.27
2018-06-19T22:53:23.132Z,5.60
2018-06-19T22:55:51.542Z,5.63
2018-06-19T22:58:20.161Z,6.07
2018-06-19T23:00:48.796Z,5.53
2018-06-19T23:03:17.104Z,5.30
2018-06-19T23:05:45.536Z,5.47
2018-06-19T23:08:14.499Z,5.23
2018-06-19T23:10:43.060Z,5.50
2018-06-19T23:13:11.556Z,5.97
2018-06-19T23:15:40.080Z,5.60
2018-06-19T23:18:08.612Z,5.90
2018-06-19T23:20:36.953Z,5.83
2018-06-19T23:23:05.507Z,5.83
2018-06-19T23:25:34.021Z,5.83
2018-06-19T23:28:02.477Z,5.67
2018-06-19T23:30:31.207Z,5.80
2018-06-19T23:33:00.128Z,5.43
2018-06-19T23:35:33.788Z,5.87
2018-06-19T23:38:02.514Z,6.00
2018-06-19T23:40:31.224Z,6.07
2018-06-19T23:43:00.129Z,5.63
2018-06-19T23:45:28.833Z,5.90
2018-06-19T23:47:57.792Z,6.30
2018-06-19T23:50:26.197Z,6.20
2018-06-19T23:52:54.891Z,6.27
2018-06-19T23:55:23.669Z,5.93
2018-06-19T23:57:52.503Z,6.23
